Time;durP1;ratioP1;P1;durP2;ratioP2;P2;SDS_P1;SDS_P2;PMS_P1;PMS_P2;Temp;Humidity;BMP_temperature;BMP_pressure;BME280_temperature;BME280_humidity;BME280_pressure;Samples;Min_cycle;Max_cycle;Signal;HPM_P1;HPM_P2
2021/03/07 00:00:11;;;;;;;4.88;4.00;;;3.90;98.30;;;;;;5175627;23;20659;-81
2021/03/07 00:02:13;;;;;;;4.90;4.22;;;3.90;98.30;;;;;;5167396;23;20601;-81
2021/03/07 00:04:15;;;;;;;10.05;5.05;;;3.90;98.30;;;;;;5175442;23;20219;-81
2021/03/07 00:06:18;;;;;;;8.68;5.53;;;4.00;98.30;;;;;;5167649;23;20205;-80
2021/03/07 00:08:20;;;;;;;4.43;4.03;;;3.90;98.30;;;;;;5170565;23;20209;-81
2021/03/07 00:10:22;;;;;;;8.02;4.40;;;4.00;98.30;;;;;;5167459;23;20198;-81
2021/03/07 00:12:24;;;;;;;5.45;3.97;;;3.90;98.30;;;;;;5168138;23;20211;-81
2021/03/07 00:14:26;;;;;;;5.45;4.15;;;3.90;98.30;;;;;;5166901;23;20215;-80
2021/03/07 00:16:27;;;;;;;7.93;4.13;;;3.90;98.30;;;;;;5167499;23;20291;-81
2021/03/07 00:18:30;;;;;;;4.57;4.10;;;3.90;98.30;;;;;;5167468;23;20752;-81
2021/03/07 00:20:34;;;;;;;8.20;4.05;;;3.90;98.30;;;;;;5175571;23;20211;-81
2021/03/07 00:22:37;;;;;;;9.65;4.30;;;3.90;98.30;;;;;;5167148;23;20328;-81
2021/03/07 00:24:39;;;;;;;6.45;4.20;;;3.80;98.30;;;;;;5166609;23;20680;-81
2021/03/07 00:26:41;;;;;;;6.30;4.50;;;3.70;98.30;;;;;;5167023;23;20201;-81
2021/03/07 00:28:43;;;;;;;5.72;3.95;;;3.70;98.30;;;;;;5166893;23;20677;-81
2021/03/07 00:30:45;;;;;;;6.03;5.15;;;3.70;98.30;;;;;;5166857;23;20204;-81
2021/03/07 00:32:47;;;;;;;6.63;4.22;;;3.70;98.30;;;;;;5167394;23;20660;-81
2021/03/07 00:34:49;;;;;;;9.68;4.95;;;3.70;98.30;;;;;;5167291;23;20202;-81
2021/03/07 00:36:51;;;;;;;5.60;4.32;;;3.70;98.30;;;;;;5167559;23;20200;-81
2021/03/07 00:38:54;;;;;;;7.82;4.15;;;3.60;98.30;;;;;;5166435;23;20205;-81
2021/03/07 00:41:13;;;;;;;6.18;4.65;;;3.60;98.30;;;;;;5174934;23;20212;-81
2021/03/07 00:43:15;;;;;;;5.03;3.90;;;3.60;98.30;;;;;;5175529;23;20275;-81
2021/03/07 00:45:18;;;;;;;4.75;3.97;;;3.60;98.30;;;;;;5167399;23;20562;-81
2021/03/07 00:47:21;;;;;;;5.10;4.40;;;3.60;98.30;;;;;;5167934;23;20213;-81
2021/03/07 00:49:25;;;;;;;6.10;3.60;;;3.70;98.30;;;;;;5167424;23;20255;-81
2021/03/07 00:51:27;;;;;;;7.82;4.97;;;3.70;98.30;;;;;;5167196;23;20263;-81
2021/03/07 00:53:30;;;;;;;6.85;4.90;;;3.80;98.30;;;;;;5177588;23;20196;-81
2021/03/07 00:55:32;;;;;;;7.80;4.13;;;3.70;98.30;;;;;;5170447;23;20207;-81
2021/03/07 00:57:34;;;;;;;6.70;3.90;;;3.80;98.30;;;;;;5167750;23;20201;-81
2021/03/07 00:59:36;;;;;;;5.65;4.22;;;3.70;98.30;;;;;;5166719;23;20205;-81
2021/03/07 01:01:39;;;;;;;7.60;4.15;;;3.70;98.30;;;;;;5166792;23;20288;-81
2021/03/07 01:03:41;;;;;;;5.13;4.10;;;3.70;98.30;;;;;;5166717;23;20212;-81
2021/03/07 01:05:43;;;;;;;5.32;4.10;;;3.70;98.30;;;;;;5166949;23;20240;-80
2021/03/07 01:07:45;;;;;;;6.55;4.05;;;3.70;98.30;;;;;;5167693;23;20279;-81
2021/03/07 01:09:47;;;;;;;7.28;4.00;;;3.70;98.30;;;;;;5166881;23;20239;-81
2021/03/07 01:11:50;;;;;;;6.78;3.20;;;3.70;98.30;;;;;;5176284;23;20201;-81
2021/03/07 01:13:52;;;;;;;4.35;3.40;;;3.70;98.30;;;;;;5168422;23;20945;-81
2021/03/07 01:15:54;;;;;;;7.93;3.85;;;3.70;98.30;;;;;;5178041;23;20205;-81
2021/03/07 01:17:58;;;;;;;4.20;3.80;;;3.70;98.30;;;;;;5178110;23;20671;-81
2021/03/07 01:20:00;;;;;;;4.22;3.47;;;3.80;98.30;;;;;;5166281;23;20748;-81
2021/03/07 01:22:04;;;;;;;5.55;3.20;;;3.80;98.30;;;;;;5166698;23;20245;-80
2021/03/07 01:24:08;;;;;;;4.78;3.45;;;3.80;98.30;;;;;;5166447;23;20284;-81
2021/03/07 01:26:10;;;;;;;3.80;3.30;;;3.80;98.30;;;;;;5165814;23;20264;-81
2021/03/07 01:28:13;;;;;;;5.57;3.42;;;3.90;98.30;;;;;;5165553;23;20894;-81
2021/03/07 01:30:17;;;;;;;5.90;4.15;;;3.90;98.30;;;;;;5165976;23;20517;-81
2021/03/07 01:32:18;;;;;;;11.65;3.42;;;3.90;98.30;;;;;;5166731;23;20565;-81
2021/03/07 01:34:20;;;;;;;18.45;11.63;;;3.90;98.30;;;;;;5166775;23;20240;-81
2021/03/07 01:36:22;;;;;;;14.20;7.63;;;3.80;98.30;;;;;;5174062;23;20207;-80
2021/03/07 01:38:24;;;;;;;4.93;3.28;;;3.80;98.30;;;;;;5166925;23;20200;-81
2021/03/07 01:40:29;;;;;;;5.18;3.58;;;3.80;98.30;;;;;;5167453;23;20616;-80
2021/03/07 01:42:32;;;;;;;6.57;3.80;;;3.90;98.30;;;;;;5167735;23;20209;-81
2021/03/07 01:44:34;;;;;;;5.28;3.50;;;3.90;98.30;;;;;;5168603;23;20242;-80
2021/03/07 01:46:36;;;;;;;6.75;4.22;;;3.90;98.30;;;;;;5176318;23;20237;-81
2021/03/07 01:48:39;;;;;;;3.83;3.42;;;3.90;98.30;;;;;;5176564;23;20200;-81
2021/03/07 01:50:43;;;;;;;5.57;3.63;;;3.90;98.30;;;;;;5167297;23;20224;-80
2021/03/07 01:52:46;;;;;;;5.05;3.30;;;3.90;98.30;;;;;;5167987;23;20205;-80
2021/03/07 01:54:48;;;;;;;6.60;3.45;;;3.90;98.30;;;;;;5168191;23;20201;-80
2021/03/07 01:56:52;;;;;;;7.65;3.53;;;3.80;98.30;;;;;;5166728;23;20262;-81
2021/03/07 01:58:57;;;;;;;5.03;3.72;;;3.80;98.30;;;;;;5174852;23;20509;-81
2021/03/07 02:01:00;;;;;;;7.68;3.58;;;3.80;98.30;;;;;;5166056;23;20205;-79
2021/03/07 02:03:03;;;;;;;6.18;3.55;;;3.90;98.30;;;;;;5166686;23;20687;-80
2021/03/07 02:05:08;;;;;;;103.47;61.30;;;3.90;98.30;;;;;;5166484;23;20205;-80
2021/03/07 02:07:10;;;;;;;36.70;23.33;;;3.90;98.30;;;;;;5174787;23;20201;-79
2021/03/07 02:09:11;;;;;;;13.45;6.35;;;3.90;98.30;;;;;;5166070;23;20201;-80
2021/03/07 02:11:14;;;;;;;4.88;3.53;;;3.90;98.30;;;;;;5166586;23;20545;-80
2021/03/07 02:13:19;;;;;;;5.45;3.88;;;3.90;98.30;;;;;;5175825;23;20849;-81
2021/03/07 02:15:22;;;;;;;4.63;3.30;;;3.90;98.30;;;;;;5174877;23;20201;-81
2021/03/07 02:17:29;;;;;;;8.32;4.10;;;3.90;98.30;;;;;;5175157;23;20298;-80
2021/03/07 02:19:38;;;;;;;5.10;3.67;;;3.90;98.30;;;;;;5166802;23;20205;-80
2021/03/07 02:21:57;;;;;;;6.15;3.50;;;3.90;98.30;;;;;;5166378;23;20209;-81
2021/03/07 02:24:04;;;;;;;5.60;3.58;;;4.00;98.30;;;;;;5166065;23;20667;-80
2021/03/07 02:26:06;;;;;;;4.65;3.75;;;3.90;98.30;;;;;;5167572;23;20209;-80
2021/03/07 02:28:09;;;;;;;9.05;4.07;;;3.80;98.30;;;;;;5176559;23;20201;-80
2021/03/07 02:30:14;;;;;;;3.78;3.13;;;3.60;98.30;;;;;;5176860;23;20205;-80
2021/03/07 02:32:21;;;;;;;5.40;3.65;;;3.70;98.30;;;;;;5177611;23;20547;-81
2021/03/07 02:34:34;;;;;;;8.77;3.40;;;3.60;98.30;;;;;;5169063;23;20214;-80
2021/03/07 02:36:39;;;;;;;6.82;3.80;;;3.70;98.30;;;;;;5169172;23;20215;-81
2021/03/07 02:38:44;;;;;;;5.43;3.75;;;3.60;98.30;;;;;;5170069;23;20209;-81
2021/03/07 02:40:50;;;;;;;9.27;4.00;;;3.60;98.30;;;;;;5177783;23;20205;-81
2021/03/07 02:42:56;;;;;;;8.02;3.95;;;3.70;98.30;;;;;;5170440;23;20275;-82
2021/03/07 02:45:03;;;;;;;5.90;3.38;;;3.70;98.30;;;;;;5170536;23;20211;-81
2021/03/07 02:47:06;;;;;;;4.80;3.33;;;3.80;98.30;;;;;;5170613;23;20205;-82
2021/03/07 02:49:13;;;;;;;4.72;3.70;;;3.80;98.30;;;;;;5178579;23;20205;-81
2021/03/07 02:51:16;;;;;;;5.85;3.55;;;3.80;98.30;;;;;;5170268;23;20209;-82
2021/03/07 02:53:21;;;;;;;9.13;4.72;;;3.90;98.30;;;;;;5170578;23;20539;-81
2021/03/07 02:55:27;;;;;;;5.30;3.15;;;3.80;98.30;;;;;;5171704;23;20204;-81
2021/03/07 02:57:31;;;;;;;4.43;3.30;;;3.80;98.30;;;;;;5170956;23;20201;-81
2021/03/07 02:59:37;;;;;;;5.22;3.50;;;3.80;98.30;;;;;;5169178;23;20205;-81
2021/03/07 03:01:40;;;;;;;6.32;3.40;;;3.80;98.30;;;;;;5178176;23;20610;-81
2021/03/07 03:03:43;;;;;;;3.50;3.20;;;3.70;98.30;;;;;;5170807;23;20231;-81
2021/03/07 03:05:47;;;;;;;4.25;3.65;;;3.80;98.30;;;;;;5171773;23;20211;-82
2021/03/07 03:07:50;;;;;;;8.68;3.28;;;3.70;98.30;;;;;;5172431;23;20205;-81
2021/03/07 03:09:54;;;;;;;4.40;3.42;;;3.70;98.30;;;;;;5171604;23;20215;-81
2021/03/07 03:11:58;;;;;;;7.40;3.25;;;3.70;98.30;;;;;;5172126;23;20205;-81
2021/03/07 03:14:02;;;;;;;5.15;3.85;;;3.70;98.30;;;;;;5180590;23;20275;-81
2021/03/07 03:16:06;;;;;;;6.45;3.50;;;3.70;98.30;;;;;;5180052;23;20201;-81
2021/03/07 03:18:09;;;;;;;4.45;3.70;;;3.80;98.30;;;;;;5170409;23;20208;-81
2021/03/07 03:20:15;;;;;;;5.75;3.70;;;3.80;98.30;;;;;;5178527;23;20283;-80
2021/03/07 03:22:18;;;;;;;5.20;3.42;;;3.70;98.30;;;;;;5180913;23;20212;-81
2021/03/07 03:24:20;;;;;;;6.05;4.15;;;3.80;98.30;;;;;;5179874;23;20684;-81
2021/03/07 03:26:24;;;;;;;6.78;3.95;;;3.70;98.30;;;;;;5172918;23;20758;-81
2021/03/07 03:28:26;;;;;;;5.43;3.22;;;3.70;98.30;;;;;;5173053;23;20715;-81
2021/03/07 03:30:30;;;;;;;5.63;3.58;;;3.70;98.30;;;;;;5174632;23;20224;-81
2021/03/07 03:32:32;;;;;;;7.88;4.28;;;3.80;98.30;;;;;;5179344;23;20205;-81
2021/03/07 03:34:34;;;;;;;7.20;4.50;;;3.70;98.30;;;;;;5170660;23;20205;-81
2021/03/07 03:36:38;;;;;;;5.40;3.60;;;3.70;98.30;;;;;;5179813;23;20209;-81
2021/03/07 03:38:43;;;;;;;4.63;3.50;;;3.70;98.30;;;;;;5171118;23;20235;-82
2021/03/07 03:40:48;;;;;;;5.85;3.50;;;3.70;98.30;;;;;;5169665;23;20205;-81
2021/03/07 03:42:55;;;;;;;4.10;3.35;;;3.70;98.30;;;;;;5179538;23;20219;-81
2021/03/07 03:45:00;;;;;;;7.15;3.90;;;3.70;98.30;;;;;;5178804;23;20208;-81
2021/03/07 03:47:03;;;;;;;4.10;3.70;;;3.70;98.30;;;;;;5170258;23;20227;-82
2021/03/07 03:49:13;;;;;;;11.55;4.70;;;3.70;98.30;;;;;;5170006;23;20934;-81
2021/03/07 03:51:19;;;;;;;7.35;4.13;;;3.60;98.30;;;;;;5179370;23;20332;-81
2021/03/07 03:53:23;;;;;;;4.72;4.30;;;3.60;98.30;;;;;;5170823;23;20204;-81
2021/03/07 03:55:28;;;;;;;11.02;4.90;;;3.70;98.30;;;;;;5170750;23;20672;-81
2021/03/07 03:57:31;;;;;;;10.20;5.88;;;3.70;98.30;;;;;;5179466;23;20284;-81
2021/03/07 03:59:33;;;;;;;8.43;5.38;;;3.70;98.30;;;;;;5169980;23;20212;-81
2021/03/07 04:01:37;;;;;;;7.80;5.15;;;3.70;98.30;;;;;;5170918;23;20212;-81
2021/03/07 04:03:42;;;;;;;6.10;5.50;;;3.70;98.30;;;;;;5178486;23;20275;-81
2021/03/07 04:05:46;;;;;;;9.75;6.15;;;3.70;98.30;;;;;;5169506;23;20205;-81
2021/03/07 04:07:50;;;;;;;6.78;5.82;;;3.80;98.30;;;;;;5169957;23;20205;-81
2021/03/07 04:09:54;;;;;;;9.40;5.97;;;3.80;98.30;;;;;;5178126;23;20201;-81
2021/03/07 04:11:58;;;;;;;7.47;5.53;;;3.80;98.30;;;;;;5179067;23;20208;-81
2021/03/07 04:14:00;;;;;;;7.20;5.20;;;3.90;98.30;;;;;;5170282;23;20205;-81
2021/03/07 04:16:03;;;;;;;7.25;6.18;;;3.90;98.30;;;;;;5169000;23;20282;-81
2021/03/07 04:18:07;;;;;;;8.75;5.45;;;3.90;98.30;;;;;;5168971;23;20202;-81
2021/03/07 04:20:12;;;;;;;8.35;5.70;;;3.80;98.30;;;;;;5167329;23;20229;-81
2021/03/07 04:22:15;;;;;;;8.40;5.63;;;3.80;98.30;;;;;;5175796;23;20201;-81
2021/03/07 04:24:17;;;;;;;12.43;9.00;;;3.80;98.30;;;;;;5167780;23;20212;-81
2021/03/07 04:26:20;;;;;;;21.23;11.20;;;3.80;98.30;;;;;;5176417;23;20208;-81
2021/03/07 04:28:24;;;;;;;36.55;20.40;;;3.90;98.30;;;;;;5177833;23;20205;-81
2021/03/07 04:30:27;;;;;;;6.88;4.82;;;3.90;98.30;;;;;;5169510;23;20213;-81
2021/03/07 04:32:29;;;;;;;7.45;4.50;;;3.90;98.30;;;;;;5169997;23;20247;-81
2021/03/07 04:34:32;;;;;;;8.50;4.00;;;3.80;98.30;;;;;;5170816;23;20205;-81
2021/03/07 04:36:35;;;;;;;4.60;3.80;;;3.80;98.30;;;;;;5170045;23;20692;-82
2021/03/07 04:38:38;;;;;;;6.60;4.18;;;3.80;98.30;;;;;;5173939;23;20235;-81
2021/03/07 04:40:41;;;;;;;8.45;4.30;;;3.80;98.30;;;;;;5168903;23;20205;-81
2021/03/07 04:42:44;;;;;;;5.50;3.83;;;3.80;98.30;;;;;;5176888;23;20201;-81
2021/03/07 04:44:46;;;;;;;5.70;4.55;;;3.70;98.30;;;;;;5168226;23;20209;-81
2021/03/07 04:46:48;;;;;;;4.55;3.63;;;3.70;98.30;;;;;;5177901;23;20211;-81
2021/03/07 04:48:50;;;;;;;7.35;4.40;;;3.70;98.30;;;;;;5176722;23;20283;-82
2021/03/07 04:50:52;;;;;;;4.75;3.95;;;3.70;98.30;;;;;;5177077;23;20227;-82
2021/03/07 04:52:55;;;;;;;28.13;15.95;;;3.70;98.30;;;;;;5168049;23;20201;-81
2021/03/07 04:54:57;;;;;;;16.83;10.40;;;3.70;98.30;;;;;;5169348;23;20224;-82
2021/03/07 04:57:02;;;;;;;9.13;6.30;;;3.80;98.30;;;;;;5169266;23;20297;-81
2021/03/07 04:59:03;;;;;;;5.32;4.22;;;3.80;98.30;;;;;;5170123;23;20205;-82
2021/03/07 05:01:05;;;;;;;5.05;4.30;;;3.90;98.30;;;;;;5169369;23;20232;-81
2021/03/07 05:03:08;;;;;;;6.93;4.45;;;3.80;98.30;;;;;;5169757;23;20513;-80
2021/03/07 05:05:10;;;;;;;9.23;5.45;;;3.80;98.30;;;;;;5178770;23;20688;-80
2021/03/07 05:07:12;;;;;;;5.97;4.60;;;3.80;98.30;;;;;;5170106;23;20207;-80
2021/03/07 05:09:15;;;;;;;9.10;4.75;;;3.70;98.30;;;;;;5168992;23;20296;-81
2021/03/07 05:11:21;;;;;;;6.43;4.85;;;3.80;98.30;;;;;;5177233;23;20197;-81
2021/03/07 05:13:23;;;;;;;5.30;4.45;;;3.80;98.30;;;;;;5168558;23;20211;-82
2021/03/07 05:15:25;;;;;;;5.07;4.57;;;3.80;98.30;;;;;;5169484;23;20284;-81
2021/03/07 05:17:27;;;;;;;5.65;4.55;;;3.90;98.30;;;;;;5169235;23;20209;-80
2021/03/07 05:19:29;;;;;;;10.15;5.25;;;3.90;98.30;;;;;;5168674;23;20263;-81
2021/03/07 05:21:32;;;;;;;6.85;4.80;;;3.80;98.30;;;;;;5177220;23;20300;-81
2021/03/07 05:23:33;;;;;;;9.02;5.20;;;3.80;98.30;;;;;;5177770;23;20525;-81
2021/03/07 05:25:36;;;;;;;7.60;5.28;;;3.90;98.30;;;;;;5168987;23;20205;-82
2021/03/07 05:27:38;;;;;;;7.45;4.90;;;3.90;98.30;;;;;;5168743;23;20205;-81
2021/03/07 05:29:40;;;;;;;9.55;4.93;;;3.90;98.30;;;;;;5168276;23;20271;-81
2021/03/07 05:31:42;;;;;;;7.15;5.18;;;3.90;98.30;;;;;;5177097;23;20292;-82
2021/03/07 05:33:44;;;;;;;8.52;5.68;;;3.80;98.30;;;;;;5169035;23;20283;-80
2021/03/07 05:35:47;;;;;;;5.55;4.90;;;3.90;98.30;;;;;;5169292;23;20261;-81
2021/03/07 05:37:50;;;;;;;12.77;5.10;;;3.90;98.30;;;;;;5169124;23;20266;-81
2021/03/07 05:39:51;;;;;;;5.57;4.88;;;3.90;98.30;;;;;;5169480;23;20211;-81
2021/03/07 05:41:54;;;;;;;9.02;5.38;;;3.90;98.30;;;;;;5169479;23;20219;-81
2021/03/07 05:43:56;;;;;;;9.68;6.10;;;3.90;98.30;;;;;;5173576;23;20264;-81
2021/03/07 05:46:00;;;;;;;12.52;6.10;;;4.00;98.30;;;;;;5174403;23;20847;-80
2021/03/07 05:48:02;;;;;;;10.40;6.35;;;4.00;98.30;;;;;;5178440;23;20280;-81
2021/03/07 05:50:05;;;;;;;7.95;5.55;;;4.00;98.30;;;;;;5168136;23;20294;-81
2021/03/07 05:52:08;;;;;;;6.60;5.90;;;4.10;98.30;;;;;;5168603;23;20912;-81
2021/03/07 05:54:11;;;;;;;10.35;6.13;;;4.10;98.30;;;;;;5167882;23;20205;-81
2021/03/07 05:56:13;;;;;;;8.68;5.68;;;4.10;98.30;;;;;;5168671;23;20205;-81
2021/03/07 05:58:17;;;;;;;9.07;6.20;;;4.10;98.30;;;;;;5169197;23;20205;-81
2021/03/07 06:00:20;;;;;;;12.15;6.85;;;4.00;98.30;;;;;;5168698;23;20288;-81
2021/03/07 06:02:22;;;;;;;16.80;9.05;;;4.10;98.30;;;;;;5168277;23;20533;-81
2021/03/07 06:04:25;;;;;;;9.52;6.97;;;4.20;98.30;;;;;;5176980;23;20251;-81
2021/03/07 06:06:29;;;;;;;10.27;6.10;;;4.20;98.30;;;;;;5168673;23;20700;-81
2021/03/07 06:08:30;;;;;;;7.85;6.43;;;4.20;98.30;;;;;;5169356;23;20664;-81
2021/03/07 06:10:33;;;;;;;10.43;6.18;;;4.20;98.30;;;;;;5168675;23;20205;-81
2021/03/07 06:12:35;;;;;;;15.18;7.05;;;4.20;98.30;;;;;;5168393;23;20244;-80
2021/03/07 06:14:38;;;;;;;11.32;7.03;;;4.20;98.30;;;;;;5168241;23;20616;-82
2021/03/07 06:16:47;;;;;;;15.07;6.25;;;4.30;98.30;;;;;;5176655;23;20219;-81
2021/03/07 06:18:50;;;;;;;8.30;5.90;;;4.30;98.30;;;;;;5176398;23;20572;-81
2021/03/07 06:20:53;;;;;;;11.10;5.45;;;4.30;98.30;;;;;;5176589;23;20209;-82
2021/03/07 06:22:59;;;;;;;12.75;6.40;;;4.30;98.30;;;;;;5168815;23;20236;-81
2021/03/07 06:25:04;;;;;;;12.40;6.30;;;4.20;98.30;;;;;;5168745;23;20259;-81
2021/03/07 06:27:08;;;;;;;13.20;6.70;;;4.20;98.30;;;;;;5177098;23;20212;-81
2021/03/07 06:29:13;;;;;;;10.90;6.38;;;4.30;98.30;;;;;;5176634;23;20742;-81
2021/03/07 06:31:30;;;;;;;8.32;5.93;;;4.40;98.30;;;;;;5167829;23;20205;-81
2021/03/07 06:33:34;;;;;;;7.40;5.78;;;4.30;98.30;;;;;;5168661;23;20954;-81
2021/03/07 06:35:36;;;;;;;8.50;5.60;;;4.40;98.30;;;;;;5168391;23;20763;-81
2021/03/07 06:37:54;;;;;;;11.32;6.07;;;4.40;98.30;;;;;;5177041;23;20290;-82
2021/03/07 06:39:57;;;;;;;10.02;6.00;;;4.50;98.30;;;;;;5178195;23;20208;-82
2021/03/07 06:42:03;;;;;;;10.02;5.65;;;4.50;98.30;;;;;;5178497;23;20244;-82
2021/03/07 06:44:10;;;;;;;9.27;5.32;;;4.40;98.30;;;;;;5179770;23;20668;-81
2021/03/07 06:46:31;;;;;;;9.30;6.50;;;4.30;98.30;;;;;;5171067;23;20738;-82
2021/03/07 06:48:36;;;;;;;10.40;6.05;;;4.30;98.30;;;;;;5170464;23;20205;-81
2021/03/07 06:50:52;;;;;;;9.20;5.70;;;4.40;98.30;;;;;;5170537;23;20734;-81
2021/03/07 06:52:56;;;;;;;7.63;5.55;;;4.30;98.30;;;;;;5173483;23;20204;-81
2021/03/07 06:55:03;;;;;;;10.60;6.00;;;4.20;98.30;;;;;;5178779;23;20554;-81
2021/03/07 06:57:05;;;;;;;9.35;5.80;;;4.30;98.30;;;;;;5179054;23;20905;-81
2021/03/07 06:59:15;;;;;;;7.47;5.40;;;4.30;98.30;;;;;;5169925;23;20532;-81
2021/03/07 07:01:18;;;;;;;7.45;4.75;;;4.40;98.30;;;;;;5169004;23;20568;-81
2021/03/07 07:03:21;;;;;;;8.45;5.20;;;4.30;98.30;;;;;;5169864;23;20513;-81
2021/03/07 07:05:34;;;;;;;8.35;5.32;;;4.30;98.30;;;;;;5178271;23;20220;-82
2021/03/07 07:07:47;;;;;;;13.05;7.03;;;4.30;98.30;;;;;;5169682;23;20254;-81
2021/03/07 07:09:58;;;;;;;8.88;5.28;;;4.20;98.30;;;;;;5169806;23;20707;-82
2021/03/07 07:12:03;;;;;;;6.60;5.45;;;4.20;98.30;;;;;;5178886;23;20315;-81
2021/03/07 07:14:05;;;;;;;9.40;5.30;;;4.10;98.30;;;;;;5170372;23;20716;-81
2021/03/07 07:16:09;;;;;;;11.00;5.22;;;4.20;98.30;;;;;;5170190;23;20208;-81
2021/03/07 07:18:11;;;;;;;6.25;5.15;;;4.20;98.30;;;;;;5170732;23;20266;-81
2021/03/07 07:20:15;;;;;;;8.30;5.50;;;4.10;98.30;;;;;;5170292;23;20209;-81
2021/03/07 07:22:17;;;;;;;11.07;5.30;;;4.10;98.30;;;;;;5177730;23;20205;-81
2021/03/07 07:24:19;;;;;;;5.60;4.78;;;4.10;98.30;;;;;;5178428;23;20216;-80
2021/03/07 07:26:21;;;;;;;9.07;4.90;;;4.10;98.30;;;;;;5169883;23;20632;-81
2021/03/07 07:28:24;;;;;;;14.68;4.75;;;4.10;98.30;;;;;;5169798;23;20205;-81
2021/03/07 07:30:25;;;;;;;7.45;4.20;;;4.10;98.30;;;;;;5168726;23;20201;-81
2021/03/07 07:32:33;;;;;;;7.68;5.00;;;4.10;98.30;;;;;;5169041;23;20280;-81
2021/03/07 07:34:43;;;;;;;16.60;11.20;;;4.10;98.30;;;;;;5169835;23;20525;-80
2021/03/07 07:36:51;;;;;;;11.45;5.20;;;4.20;98.30;;;;;;5169491;23;20535;-81
2021/03/07 07:38:56;;;;;;;9.02;4.57;;;4.10;98.30;;;;;;5170191;23;20288;-81
2021/03/07 07:40:59;;;;;;;5.85;4.18;;;4.10;98.30;;;;;;5178866;23;20204;-80
2021/03/07 07:43:02;;;;;;;5.53;3.97;;;4.10;98.30;;;;;;5177936;23;20254;-81
2021/03/07 07:45:20;;;;;;;7.93;5.03;;;4.20;98.30;;;;;;5178956;23;20243;-81
2021/03/07 07:47:22;;;;;;;7.82;4.43;;;4.20;98.30;;;;;;5170199;23;20209;-81
2021/03/07 07:49:42;;;;;;;7.03;3.60;;;4.30;98.30;;;;;;5170590;23;20201;-81
2021/03/07 07:51:45;;;;;;;6.85;5.22;;;4.30;98.30;;;;;;5169832;23;20205;-81
2021/03/07 07:53:47;;;;;;;5.55;4.80;;;4.20;98.30;;;;;;5170075;23;20692;-81
2021/03/07 07:55:57;;;;;;;12.63;5.40;;;4.20;98.30;;;;;;5178819;23;20205;-81
2021/03/07 07:58:00;;;;;;;7.90;4.18;;;4.20;98.30;;;;;;5179760;23;20478;-81
2021/03/07 08:00:06;;;;;;;7.55;4.25;;;4.10;98.30;;;;;;5170697;23;20526;-80
2021/03/07 08:02:08;;;;;;;6.68;4.30;;;4.10;98.30;;;;;;5169953;23;20676;-81
2021/03/07 08:04:37;;;;;;;7.32;4.57;;;4.20;98.30;;;;;;5169135;23;20255;-81
2021/03/07 08:06:44;;;;;;;9.88;4.35;;;4.20;98.30;;;;;;5177787;23;20563;-81
2021/03/07 08:08:47;;;;;;;9.88;4.30;;;4.20;98.30;;;;;;5179387;23;20232;-81
2021/03/07 08:10:51;;;;;;;5.47;3.80;;;4.20;98.30;;;;;;5169824;23;20220;-81
2021/03/07 08:12:53;;;;;;;6.78;4.53;;;4.30;98.30;;;;;;5169208;23;20201;-80
2021/03/07 08:14:55;;;;;;;10.68;4.10;;;4.20;98.30;;;;;;5177654;23;20205;-81
2021/03/07 08:16:57;;;;;;;5.68;4.20;;;4.20;98.30;;;;;;5177529;23;20209;-81
2021/03/07 08:18:59;;;;;;;6.85;4.20;;;4.20;98.30;;;;;;5176520;23;20200;-80
2021/03/07 08:21:06;;;;;;;7.68;4.70;;;4.30;98.30;;;;;;5167629;23;20207;-81
2021/03/07 08:23:09;;;;;;;11.27;4.82;;;4.30;98.30;;;;;;5176185;23;20228;-81
2021/03/07 08:25:12;;;;;;;7.55;4.40;;;4.30;98.30;;;;;;5168459;23;20239;-80
2021/03/07 08:27:33;;;;;;;10.07;4.57;;;4.30;98.30;;;;;;5168373;23;20239;-81
2021/03/07 08:29:45;;;;;;;6.20;3.97;;;4.40;98.30;;;;;;5169341;23;20204;-80
2021/03/07 08:31:47;;;;;;;7.68;4.32;;;4.50;98.30;;;;;;5169385;23;20200;-81
2021/03/07 08:33:49;;;;;;;4.97;4.30;;;4.50;98.30;;;;;;5177673;23;20209;-81
2021/03/07 08:36:10;;;;;;;11.93;4.88;;;4.50;98.30;;;;;;5168809;23;20207;-82
2021/03/07 08:38:14;;;;;;;6.93;4.00;;;4.50;98.30;;;;;;5168649;23;20288;-81
2021/03/07 08:40:32;;;;;;;5.47;4.32;;;4.50;98.30;;;;;;5177329;23;20197;-81
2021/03/07 08:42:34;;;;;;;5.00;4.10;;;4.50;98.30;;;;;;5177285;23;20260;-81
2021/03/07 08:44:39;;;;;;;7.10;4.20;;;4.50;98.30;;;;;;5177743;23;20640;-81
2021/03/07 08:46:47;;;;;;;9.75;4.97;;;4.60;98.30;;;;;;5169766;23;20234;-82
2021/03/07 08:48:51;;;;;;;7.43;4.00;;;4.50;98.30;;;;;;5169635;23;20209;-81
2021/03/07 08:50:54;;;;;;;5.18;4.00;;;4.50;98.30;;;;;;5178222;23;20196;-82
2021/03/07 08:52:57;;;;;;;6.63;4.20;;;4.50;98.30;;;;;;5170707;23;20205;-81
2021/03/07 08:55:02;;;;;;;4.20;3.42;;;4.50;98.30;;;;;;5178876;23;20201;-81
2021/03/07 08:57:07;;;;;;;10.00;3.70;;;4.50;98.30;;;;;;5170088;23;20212;-82
2021/03/07 08:59:11;;;;;;;7.00;4.00;;;4.60;98.30;;;;;;5169811;23;20660;-81
2021/03/07 09:01:14;;;;;;;5.05;3.67;;;4.60;98.30;;;;;;5169820;23;20656;-81
2021/03/07 09:03:16;;;;;;;6.40;4.47;;;4.60;98.30;;;;;;5170276;23;20669;-81
2021/03/07 09:05:28;;;;;;;4.85;3.65;;;4.60;98.30;;;;;;5170341;23;20672;-81
2021/03/07 09:07:30;;;;;;;8.27;4.10;;;4.70;98.30;;;;;;5171615;23;20208;-81
2021/03/07 09:09:34;;;;;;;6.32;4.28;;;4.70;98.30;;;;;;5173675;23;20209;-81
2021/03/07 09:11:38;;;;;;;8.30;5.30;;;4.80;98.30;;;;;;5183557;23;20197;-81
2021/03/07 09:13:49;;;;;;;4.33;3.80;;;5.00;98.30;;;;;;5180657;23;20202;-81
2021/03/07 09:15:53;;;;;;;10.43;4.10;;;5.10;98.30;;;;;;5181186;23;20778;-81
2021/03/07 09:17:55;;;;;;;6.57;4.03;;;5.10;98.30;;;;;;5176198;23;20959;-81
2021/03/07 09:19:57;;;;;;;7.90;3.43;;;5.30;98.30;;;;;;5168311;23;20491;-81
2021/03/07 09:22:17;;;;;;;5.83;3.60;;;5.50;98.30;;;;;;5169104;23;20463;-81
2021/03/07 09:24:19;;;;;;;7.57;4.10;;;5.60;98.30;;;;;;5170000;23;20961;-81
2021/03/07 09:26:23;;;;;;;8.50;3.73;;;5.70;98.30;;;;;;5169137;23;20983;-81
2021/03/07 09:28:37;;;;;;;8.67;3.77;;;5.70;98.30;;;;;;5168396;23;20819;-81
2021/03/07 09:30:40;;;;;;;5.93;3.93;;;5.60;98.30;;;;;;5169763;23;21005;-81
2021/03/07 09:32:44;;;;;;;9.40;4.13;;;5.60;98.30;;;;;;5169020;23;20453;-81
2021/03/07 09:34:47;;;;;;;7.00;3.63;;;5.40;98.30;;;;;;5178030;23;20546;-81
2021/03/07 09:36:49;;;;;;;6.33;3.93;;;5.40;98.30;;;;;;5169332;23;20453;-81
2021/03/07 09:38:53;;;;;;;8.67;3.73;;;5.40;98.30;;;;;;5169058;23;20516;-81
2021/03/07 09:40:55;;;;;;;7.63;3.80;;;5.50;98.30;;;;;;5168840;23;20457;-81
2021/03/07 09:42:59;;;;;;;5.63;4.20;;;5.50;98.30;;;;;;5168246;23;20452;-82
2021/03/07 09:45:01;;;;;;;5.50;3.53;;;5.50;98.30;;;;;;5176675;23;20261;-82
2021/03/07 09:47:06;;;;;;;6.65;3.50;;;5.60;98.30;;;;;;5177265;23;20539;-81
2021/03/07 09:49:09;;;;;;;9.50;4.23;;;5.60;98.30;;;;;;5177004;23;20236;-81
2021/03/07 09:51:14;;;;;;;5.57;3.63;;;5.60;98.30;;;;;;5177229;23;20452;-81
2021/03/07 09:53:16;;;;;;;6.60;3.77;;;5.60;98.30;;;;;;5169288;23;20453;-82
2021/03/07 09:55:25;;;;;;;7.43;3.70;;;5.60;98.30;;;;;;5169801;23;20476;-81
2021/03/07 09:57:27;;;;;;;6.63;4.00;;;5.50;98.30;;;;;;5169247;23;20452;-81
2021/03/07 09:59:32;;;;;;;9.43;5.83;;;5.60;98.30;;;;;;5168915;23;20465;-81
2021/03/07 10:01:41;;;;;;;8.27;4.50;;;5.70;98.30;;;;;;5168949;23;20453;-81
2021/03/07 10:03:44;;;;;;;7.90;4.50;;;5.80;98.30;;;;;;5169387;23;20485;-81
2021/03/07 10:06:19;;;;;;;5.63;4.07;;;5.80;98.30;;;;;;5170026;23;20939;-82
2021/03/07 10:08:24;;;;;;;8.63;3.87;;;5.90;98.30;;;;;;5092484;23;20534;-82
2021/03/07 10:10:27;;;;;;;9.47;4.40;;;5.90;98.30;;;;;;5099898;23;20486;-82
2021/03/07 10:12:43;;;;;;;6.93;3.63;;;5.90;98.30;;;;;;5092678;23;20444;-81
2021/03/07 10:14:52;;;;;;;6.60;3.23;;;6.10;98.30;;;;;;5172898;23;20458;-82
2021/03/07 10:16:54;;;;;;;8.93;4.53;;;6.20;98.30;;;;;;5173045;23;20879;-81
2021/03/07 10:19:09;;;;;;;8.80;4.30;;;6.10;98.30;;;;;;5170405;23;20447;-81
2021/03/07 10:21:11;;;;;;;4.57;3.60;;;6.20;98.30;;;;;;5177973;23;20468;-81
2021/03/07 10:23:13;;;;;;;5.27;4.00;;;6.20;98.30;;;;;;5179270;23;20526;-81
2021/03/07 10:25:23;;;;;;;8.70;4.03;;;6.20;98.30;;;;;;5178391;23;20597;-81
2021/03/07 10:27:30;;;;;;;6.83;4.30;;;6.30;98.30;;;;;;5177364;23;20506;-81
2021/03/07 10:29:34;;;;;;;5.13;3.87;;;6.50;98.30;;;;;;5171935;23;20458;-82
2021/03/07 10:31:37;;;;;;;5.20;3.50;;;6.50;98.30;;;;;;5189702;23;20509;-81
2021/03/07 10:33:40;;;;;;;5.57;4.00;;;6.50;98.30;;;;;;5181554;23;20524;-82
2021/03/07 10:36:01;;;;;;;10.67;4.37;;;6.40;98.30;;;;;;5188383;23;20453;-80
2021/03/07 10:38:03;;;;;;;9.27;4.50;;;6.40;98.30;;;;;;5180248;23;20975;-81
2021/03/07 10:40:08;;;;;;;12.53;4.03;;;6.40;98.30;;;;;;5176449;23;20541;-81
2021/03/07 10:42:12;;;;;;;9.73;5.40;;;6.40;98.30;;;;;;5175813;23;20456;-81
2021/03/07 10:44:24;;;;;;;32.40;18.17;;;6.50;98.30;;;;;;5178798;23;20546;-81
2021/03/07 10:46:31;;;;;;;8.57;5.40;;;6.60;98.30;;;;;;5170573;23;20500;-81
2021/03/07 10:48:53;;;;;;;5.07;3.47;;;6.60;98.30;;;;;;5177610;23;20781;-81
2021/03/07 10:50:55;;;;;;;7.40;3.83;;;6.50;98.30;;;;;;5177454;23;20454;-81
2021/03/07 10:52:59;;;;;;;7.63;4.17;;;6.40;98.30;;;;;;5169997;23;20418;-82
2021/03/07 10:55:10;;;;;;;7.10;3.70;;;6.20;98.30;;;;;;5169504;23;20455;-81